Time;durP1;ratioP1;P1;durP2;ratioP2;P2;SDS_P1;SDS_P2;PMS_P1;PMS_P2;Temp;Humidity;BMP_temperature;BMP_pressure;BME280_temperature;BME280_humidity;BME280_pressure;Samples;Min_cycle;Max_cycle;Signal;HPM_P1;HPM_P2
2022/01/10 00:00:52;;;;;;;22.67;11.63;;;3.80;99.90;;;;;;5052203;28;20571;-54
2022/01/10 00:03:36;;;;;;;18.85;10.27;;;3.90;99.90;;;;;;5051905;28;20527;-54
2022/01/10 00:06:20;;;;;;;18.85;10.57;;;3.80;99.90;;;;;;5049221;28;20612;-55
2022/01/10 00:09:04;;;;;;;18.23;10.97;;;3.80;99.90;;;;;;5052199;28;20089;-55
2022/01/10 00:11:49;;;;;;;18.02;10.30;;;3.70;99.90;;;;;;5049184;28;20098;-52
2022/01/10 00:14:33;;;;;;;19.10;10.73;;;3.70;99.90;;;;;;5051074;28;20144;-51
2022/01/10 00:17:17;;;;;;;13.45;9.93;;;3.80;99.90;;;;;;5050743;28;20032;-49
2022/01/10 00:20:03;;;;;;;14.80;9.17;;;3.80;99.90;;;;;;5051945;28;20044;-56
2022/01/10 00:22:49;;;;;;;18.50;10.43;;;3.80;99.90;;;;;;5049359;28;20147;-53
2022/01/10 00:25:33;;;;;;;22.13;9.98;;;3.90;99.90;;;;;;5050135;28;20028;-55
2022/01/10 00:28:17;;;;;;;17.15;10.50;;;4.00;99.90;;;;;;5050215;28;20447;-53
2022/01/10 00:31:02;;;;;;;17.90;10.30;;;3.90;99.90;;;;;;5052132;28;20070;-55
2022/01/10 00:33:46;;;;;;;16.15;9.90;;;3.90;99.90;;;;;;5051818;28;20122;-52
2022/01/10 00:36:30;;;;;;;14.65;10.73;;;3.90;99.90;;;;;;5050341;28;20040;-53
2022/01/10 00:39:14;;;;;;;15.55;10.45;;;3.90;99.90;;;;;;5051999;28;20511;-54
2022/01/10 00:41:58;;;;;;;18.85;9.73;;;3.90;99.90;;;;;;5051708;28;20091;-52
2022/01/10 00:44:51;;;;;;;16.95;10.90;;;3.80;99.90;;;;;;5052708;28;20424;-50
2022/01/10 00:47:35;;;;;;;19.15;10.60;;;3.80;99.90;;;;;;5039606;28;20033;-52
2022/01/10 00:50:20;;;;;;;17.65;10.70;;;3.80;99.90;;;;;;5038257;28;20132;-49
2022/01/10 00:53:04;;;;;;;17.98;9.48;;;3.80;99.90;;;;;;5046938;28;20040;-50
2022/01/10 00:55:48;;;;;;;17.35;11.68;;;3.80;99.90;;;;;;5033579;28;20044;-55
2022/01/10 00:58:32;;;;;;;16.35;9.93;;;3.80;99.90;;;;;;5040278;28;20048;-53
2022/01/10 01:01:18;;;;;;;24.93;11.03;;;3.70;99.90;;;;;;5043565;28;20102;-52
2022/01/10 01:04:02;;;;;;;;;;;3.70;99.90;;;;;;5039885;28;20087;-52
2022/01/10 01:06:48;;;;;;;20.02;10.43;;;3.70;99.90;;;;;;5043337;28;19935;-53
2022/01/10 01:09:32;;;;;;;14.90;10.00;;;3.70;99.90;;;;;;5039581;28;20045;-51
2022/01/10 01:12:30;;;;;;;22.08;10.82;;;3.80;99.90;;;;;;5039007;28;20044;-54
2022/01/10 01:15:20;;;;;;;15.77;10.75;;;3.80;99.90;;;;;;5040801;28;20106;-49
2022/01/10 01:24:03;;;;;;;15.13;10.85;;;3.70;99.90;;;;;;5045628;28;20071;-57
2022/01/10 01:26:51;;;;;;;18.25;10.30;;;3.80;99.90;;;;;;5042838;28;20031;-55
2022/01/10 01:29:35;;;;;;;18.85;10.25;;;3.80;99.90;;;;;;5041324;28;20037;-55
2022/01/10 01:32:19;;;;;;;18.95;10.75;;;3.80;99.90;;;;;;5041650;28;21542;-51
2022/01/10 01:35:07;;;;;;;20.47;11.67;;;3.70;99.90;;;;;;5041200;28;20657;-58
2022/01/10 01:37:52;;;;;;;17.45;11.82;;;3.70;99.90;;;;;;5050247;28;20699;-52
2022/01/10 01:40:43;;;;;;;18.63;11.52;;;3.70;99.90;;;;;;5049269;28;20090;-50
2022/01/10 01:43:28;;;;;;;16.48;11.07;;;3.70;99.90;;;;;;5042545;28;20043;-54
2022/01/10 01:46:13;;;;;;;17.33;12.02;;;3.80;99.90;;;;;;5048721;28;20120;-52
2022/01/10 01:48:57;;;;;;;25.63;12.13;;;3.70;99.90;;;;;;5044328;28;20040;-53
2022/01/10 01:51:41;;;;;;;19.15;12.02;;;3.60;99.90;;;;;;5043513;28;20095;-53
2022/01/10 01:54:25;;;;;;;21.15;13.25;;;3.60;99.90;;;;;;5053756;28;20032;-50
2022/01/10 01:57:09;;;;;;;20.52;11.18;;;3.60;99.90;;;;;;5043623;28;20150;-52
2022/01/10 01:59:53;;;;;;;19.95;11.60;;;3.50;99.90;;;;;;5043780;28;20119;-51
2022/01/10 02:02:38;;;;;;;18.73;11.73;;;3.50;99.90;;;;;;5041565;28;20051;-55
2022/01/10 02:05:22;;;;;;;17.23;12.07;;;3.50;99.90;;;;;;5046653;28;20048;-56
2022/01/10 02:08:09;;;;;;;21.40;11.93;;;3.50;99.90;;;;;;5041158;28;20047;-52
2022/01/10 02:10:53;;;;;;;19.38;12.43;;;3.50;99.90;;;;;;5048021;28;20321;-53
2022/01/10 02:13:38;;;;;;;21.33;12.43;;;3.40;99.90;;;;;;5041203;28;20771;-47
2022/01/10 02:16:33;;;;;;;24.33;12.05;;;3.40;99.90;;;;;;5043734;28;20401;-52
2022/01/10 02:19:17;;;;;;;21.95;12.05;;;3.40;99.90;;;;;;5053893;28;20469;-56
2022/01/10 02:22:03;;;;;;;19.67;12.25;;;3.60;99.90;;;;;;5050453;28;20056;-57
2022/01/10 02:24:47;;;;;;;19.40;12.43;;;3.80;99.90;;;;;;5044822;28;20090;-55
2022/01/10 02:27:31;;;;;;;24.48;11.90;;;3.90;99.90;;;;;;5054944;28;20278;-58
2022/01/10 02:30:15;;;;;;;22.98;13.35;;;3.90;99.90;;;;;;5054457;28;20090;-59
2022/01/10 02:33:01;;;;;;;22.10;12.68;;;3.90;99.90;;;;;;5053065;28;20051;-55
2022/01/10 02:35:55;;;;;;;19.33;11.75;;;4.00;99.90;;;;;;5038299;28;20036;-58
2022/01/10 02:38:50;;;;;;;21.10;12.43;;;4.10;99.90;;;;;;5043099;28;20043;-56
2022/01/10 02:41:38;;;;;;;16.33;11.02;;;4.10;99.90;;;;;;5055496;28;20067;-53
2022/01/10 02:44:22;;;;;;;19.73;12.05;;;4.20;99.90;;;;;;5040767;28;20040;-55
2022/01/10 02:47:06;;;;;;;20.13;11.18;;;4.10;99.90;;;;;;5068379;28;20424;-56
2022/01/10 02:49:50;;;;;;;17.55;11.93;;;4.00;99.90;;;;;;5054355;28;20044;-56
2022/01/10 02:52:35;;;;;;;18.55;11.43;;;3.90;99.90;;;;;;5041473;28;20044;-57
2022/01/10 02:55:19;;;;;;;17.48;11.45;;;3.90;99.90;;;;;;5054619;28;20028;-52
2022/01/10 02:58:03;;;;;;;16.83;11.68;;;3.90;99.90;;;;;;5038350;28;20040;-54
2022/01/10 03:00:47;;;;;;;18.23;11.98;;;4.00;99.90;;;;;;5055049;28;20104;-55
2022/01/10 03:03:32;;;;;;;23.80;11.90;;;4.00;99.90;;;;;;5054249;28;20048;-52
2022/01/10 03:06:16;;;;;;;18.83;12.45;;;4.00;99.90;;;;;;5056083;28;20039;-55
2022/01/10 03:09:05;;;;;;;18.10;11.65;;;3.80;99.90;;;;;;5055911;28;20048;-58
2022/01/10 03:11:49;;;;;;;19.55;10.45;;;3.90;99.90;;;;;;5054819;28;20051;-56
2022/01/10 03:14:34;;;;;;;19.48;12.23;;;3.70;99.90;;;;;;5054649;28;20117;-54
2022/01/10 03:17:20;;;;;;;21.13;12.43;;;3.70;99.90;;;;;;5053695;28;20417;-58
2022/01/10 03:20:08;;;;;;;17.85;11.55;;;3.60;99.90;;;;;;5049586;28;20090;-56
2022/01/10 03:22:53;;;;;;;21.58;13.00;;;3.80;99.90;;;;;;5052721;28;20397;-54
2022/01/10 03:25:37;;;;;;;19.15;12.23;;;3.80;99.90;;;;;;5053628;28;20124;-55
2022/01/10 03:28:21;;;;;;;19.20;11.50;;;3.60;99.90;;;;;;5052855;28;20527;-53
2022/01/10 03:31:05;;;;;;;19.55;12.55;;;3.60;99.90;;;;;;5052131;28;20554;-56
2022/01/10 03:33:50;;;;;;;17.63;12.50;;;3.60;99.90;;;;;;5053812;28;20567;-55
2022/01/10 03:36:34;;;;;;;19.60;12.18;;;3.60;99.90;;;;;;5043027;28;20516;-59
2022/01/10 03:39:19;;;;;;;20.65;12.07;;;3.60;99.90;;;;;;5053033;28;20181;-57
2022/01/10 03:42:04;;;;;;;;;;;3.70;99.90;;;;;;5053873;28;20124;-57
2022/01/10 03:44:51;;;;;;;21.15;12.60;;;3.70;99.90;;;;;;5052974;28;19919;-57
2022/01/10 03:47:35;;;;;;;24.23;12.23;;;3.70;99.90;;;;;;5063181;28;20083;-55
2022/01/10 03:50:19;;;;;;;23.52;13.23;;;3.60;99.90;;;;;;5051042;28;20047;-59
2022/01/10 03:53:03;;;;;;;19.67;12.10;;;3.70;99.90;;;;;;5053941;28;20044;-56
2022/01/10 03:55:47;;;;;;;21.48;13.93;;;3.70;99.90;;;;;;5054325;28;20036;-59
2022/01/10 03:58:31;;;;;;;23.50;13.85;;;3.70;99.90;;;;;;5052936;28;20059;-58
2022/01/10 04:01:15;;;;;;;23.42;13.85;;;3.70;99.90;;;;;;5054110;28;20065;-55
2022/01/10 04:03:59;;;;;;;19.92;12.48;;;3.60;99.90;;;;;;5054013;28;20041;-59
2022/01/10 04:06:44;;;;;;;22.83;13.10;;;3.60;99.90;;;;;;5054085;28;20047;-57
2022/01/10 04:09:28;;;;;;;;;;;3.70;99.90;;;;;;5054622;28;20438;-54
2022/01/10 04:12:15;;;;;;;24.17;12.80;;;3.80;99.90;;;;;;5052586;28;19920;-56
2022/01/10 04:15:00;;;;;;;20.20;13.50;;;3.90;99.90;;;;;;5054342;28;20043;-59
2022/01/10 04:17:44;;;;;;;21.75;13.05;;;3.90;99.90;;;;;;5053663;28;20075;-56
2022/01/10 04:20:29;;;;;;;22.33;13.48;;;3.90;99.90;;;;;;5053842;28;20091;-55
2022/01/10 04:23:15;;;;;;;18.35;12.35;;;3.80;99.90;;;;;;5053496;28;20051;-56
2022/01/10 04:26:00;;;;;;;27.55;15.82;;;3.70;99.90;;;;;;5052587;28;20284;-55
2022/01/10 04:28:44;;;;;;;23.70;13.63;;;3.60;99.90;;;;;;5054132;28;20175;-56
2022/01/10 04:31:28;;;;;;;22.50;13.20;;;3.50;99.90;;;;;;5052706;28;20063;-59
2022/01/10 04:34:16;;;;;;;28.30;14.37;;;3.50;99.90;;;;;;5053097;28;20082;-60
2022/01/10 04:37:00;;;;;;;27.13;14.02;;;3.50;99.90;;;;;;5052419;28;20056;-53
2022/01/10 04:39:44;;;;;;;27.80;14.33;;;3.50;99.90;;;;;;5052399;28;20082;-57
2022/01/10 04:42:28;;;;;;;25.50;14.32;;;3.40;99.90;;;;;;5053263;28;20040;-57
2022/01/10 04:45:13;;;;;;;24.45;13.90;;;3.40;99.90;;;;;;5052168;28;20044;-56
2022/01/10 04:47:57;;;;;;;27.52;14.82;;;3.50;99.90;;;;;;5053099;28;20082;-55
2022/01/10 04:53:26;;;;;;;24.75;14.45;;;3.60;99.90;;;;;;5052950;28;20040;-56
2022/01/10 04:56:10;;;;;;;23.88;14.05;;;3.70;99.90;;;;;;5054734;28;20119;-55
2022/01/10 04:58:54;;;;;;;22.73;14.60;;;3.70;99.90;;;;;;5057179;28;20450;-55
2022/01/10 05:01:38;;;;;;;27.90;14.20;;;3.70;99.90;;;;;;5055710;28;20404;-55
2022/01/10 05:04:22;;;;;;;25.42;14.18;;;3.70;99.90;;;;;;5057298;28;20507;-57
2022/01/10 05:07:07;;;;;;;20.55;13.02;;;3.90;99.90;;;;;;5055639;28;20083;-55
2022/01/10 05:09:51;;;;;;;;;;;3.90;99.90;;;;;;5057348;28;20103;-55
2022/01/10 05:12:35;;;;;;;24.52;13.68;;;3.90;99.90;;;;;;5056265;28;19939;-56
2022/01/10 05:15:20;;;;;;;24.70;14.00;;;4.00;99.90;;;;;;5055711;28;20558;-60
2022/01/10 05:18:04;;;;;;;24.03;13.63;;;3.80;99.90;;;;;;5056299;28;20082;-60
2022/01/10 05:20:51;;;;;;;20.88;14.27;;;3.80;99.90;;;;;;5055930;28;20039;-60
2022/01/10 05:23:35;;;;;;;19.88;13.35;;;3.80;99.90;;;;;;5056776;28;20036;-58
2022/01/10 05:26:20;;;;;;;22.20;13.67;;;4.00;99.90;;;;;;5056922;28;20477;-56
2022/01/10 05:29:04;;;;;;;23.13;13.60;;;4.00;99.90;;;;;;5057027;28;20067;-55
2022/01/10 05:31:48;;;;;;;23.40;13.63;;;4.00;99.90;;;;;;5055555;28;20283;-58
2022/01/10 05:34:33;;;;;;;23.55;14.00;;;4.10;99.90;;;;;;5056586;28;20400;-59
2022/01/10 05:37:17;;;;;;;24.45;13.57;;;4.00;99.90;;;;;;5057438;28;20044;-58
2022/01/10 05:40:01;;;;;;;23.97;13.53;;;4.00;99.90;;;;;;5057091;28;20036;-55
2022/01/10 05:42:45;;;;;;;24.75;13.32;;;4.20;99.90;;;;;;5057554;28;20067;-57
2022/01/10 05:45:30;;;;;;;25.75;13.63;;;4.20;99.90;;;;;;5054896;28;20040;-56
2022/01/10 05:48:21;;;;;;;19.50;11.75;;;4.20;99.90;;;;;;5056574;28;20086;-55
2022/01/10 05:51:07;;;;;;;21.50;13.00;;;4.10;99.90;;;;;;5056230;28;20511;-56
2022/01/10 05:53:51;;;;;;;17.65;12.40;;;4.10;99.90;;;;;;5040640;28;20063;-56
2022/01/10 05:56:35;;;;;;;25.02;13.30;;;4.20;99.90;;;;;;5056282;28;20051;-56
2022/01/10 05:59:20;;;;;;;19.88;12.50;;;4.10;99.90;;;;;;5055845;28;20094;-56
2022/01/10 06:02:04;;;;;;;16.65;11.70;;;4.00;99.90;;;;;;5055067;28;20046;-54
2022/01/10 06:04:49;;;;;;;26.45;12.98;;;4.00;99.90;;;;;;5055404;28;20126;-57
2022/01/10 06:07:33;;;;;;;19.45;12.30;;;4.10;99.90;;;;;;5055004;28;20043;-57
2022/01/10 06:10:18;;;;;;;20.57;12.13;;;4.10;99.90;;;;;;5056192;28;20174;-57
2022/01/10 06:13:02;;;;;;;23.92;11.90;;;4.20;99.90;;;;;;5053905;28;20078;-59
2022/01/10 06:15:47;;;;;;;;;;;4.40;99.90;;;;;;5054877;28;20028;-53
2022/01/10 06:18:31;;;;;;;17.27;11.18;;;4.40;99.90;;;;;;5055407;28;19947;-57
2022/01/10 06:21:15;;;;;;;19.20;11.18;;;4.50;99.90;;;;;;5055047;28;20547;-55
2022/01/10 06:23:59;;;;;;;19.20;11.27;;;4.40;99.90;;;;;;5035771;28;20520;-54
2022/01/10 06:26:43;;;;;;;17.77;11.43;;;4.40;99.90;;;;;;5045393;28;20510;-55
2022/01/10 06:29:27;;;;;;;21.58;12.18;;;4.40;99.90;;;;;;5054628;28;20040;-55
2022/01/10 06:32:11;;;;;;;29.20;12.80;;;4.30;99.90;;;;;;5055192;28;20538;-56
2022/01/10 06:34:57;;;;;;;18.50;11.95;;;4.10;99.90;;;;;;5053855;28;20036;-58
2022/01/10 06:37:41;;;;;;;19.92;11.75;;;4.20;99.90;;;;;;5055409;28;20052;-56
2022/01/10 06:40:25;;;;;;;20.38;11.80;;;4.20;99.90;;;;;;5055117;28;20028;-56
2022/01/10 06:43:09;;;;;;;22.52;12.02;;;4.10;99.90;;;;;;5054518;28;20087;-58
2022/01/10 06:45:53;;;;;;;24.48;12.20;;;4.10;99.90;;;;;;5039544;28;20084;-57
2022/01/10 06:48:37;;;;;;;25.48;12.00;;;4.10;99.90;;;;;;5055037;28;20039;-58
2022/01/10 06:51:21;;;;;;;16.08;11.45;;;4.10;99.90;;;;;;5048229;28;20044;-57
2022/01/10 06:54:05;;;;;;;23.83;11.85;;;4.20;99.90;;;;;;5036644;28;20040;-57
2022/01/10 06:56:50;;;;;;;19.27;11.68;;;4.10;99.90;;;;;;5054139;28;20040;-55
2022/01/10 06:59:34;;;;;;;17.30;11.45;;;4.20;99.90;;;;;;5054489;28;20530;-57
2022/01/10 07:02:19;;;;;;;23.63;12.82;;;4.20;99.90;;;;;;5054739;28;20043;-56
2022/01/10 07:05:04;;;;;;;;;;;4.30;99.90;;;;;;5053921;28;20554;-54
2022/01/10 07:07:48;;;;;;;16.65;11.73;;;4.40;99.90;;;;;;5054948;28;19947;-56
2022/01/10 07:10:32;;;;;;;21.85;11.98;;;4.40;99.90;;;;;;5053412;28;20075;-56
2022/01/10 07:13:16;;;;;;;22.13;12.33;;;4.40;99.90;;;;;;5054739;28;20067;-57
2022/01/10 07:16:00;;;;;;;22.23;12.17;;;4.30;99.90;;;;;;5053866;28;20183;-57
2022/01/10 07:18:44;;;;;;;21.92;12.02;;;4.30;99.90;;;;;;5053436;28;20120;-56
2022/01/10 07:21:29;;;;;;;23.13;12.65;;;4.20;99.90;;;;;;5054006;28;20428;-58
2022/01/10 07:24:13;;;;;;;28.90;14.52;;;4.30;99.90;;;;;;5035910;28;20048;-58
2022/01/10 07:26:57;;;;;;;25.23;14.00;;;4.30;99.90;;;;;;5049773;28;20109;-56
2022/01/10 07:29:41;;;;;;;19.92;10.90;;;4.30;99.90;;;;;;5037201;28;20064;-56
2022/01/10 07:32:29;;;;;;;19.85;11.00;;;4.50;99.90;;;;;;5054669;28;20067;-57
2022/01/10 07:35:13;;;;;;;30.67;16.90;;;4.50;99.90;;;;;;5054546;28;20068;-57
2022/01/10 07:37:57;;;;;;;21.92;12.13;;;4.60;99.90;;;;;;5055397;28;20036;-58
2022/01/10 07:40:42;;;;;;;19.77;11.98;;;4.60;99.90;;;;;;5040033;28;20036;-56
2022/01/10 07:43:26;;;;;;;20.40;11.82;;;4.70;99.90;;;;;;5055889;28;20082;-56
2022/01/10 07:46:11;;;;;;;21.60;11.37;;;4.70;99.90;;;;;;5055506;28;20040;-55
2022/01/10 07:48:55;;;;;;;18.30;10.98;;;4.80;99.90;;;;;;5052278;28;20397;-55
2022/01/10 07:51:39;;;;;;;17.73;10.30;;;4.80;99.90;;;;;;5048615;28;20096;-54
2022/01/10 07:54:27;;;;;;;17.27;10.57;;;4.90;99.90;;;;;;5036405;28;20041;-56
2022/01/10 07:57:11;;;;;;;21.00;10.35;;;4.90;99.90;;;;;;5053670;28;20020;-56
2022/01/10 07:59:55;;;;;;;22.33;11.68;;;4.80;99.90;;;;;;5034453;28;20063;-56
2022/01/10 08:02:39;;;;;;;37.78;19.35;;;4.80;99.90;;;;;;5050481;28;20047;-58
2022/01/10 08:05:23;;;;;;;21.27;13.07;;;4.90;99.90;;;;;;5050981;28;20167;-59
2022/01/10 08:08:08;;;;;;;18.35;11.75;;;4.80;99.90;;;;;;5050458;28;20037;-56
2022/01/10 08:10:52;;;;;;;24.30;11.25;;;4.80;99.90;;;;;;5051917;28;20059;-54
2022/01/10 08:13:37;;;;;;;19.33;11.90;;;4.90;99.90;;;;;;5049122;28;20063;-58
2022/01/10 08:16:21;;;;;;;23.70;12.50;;;4.90;99.90;;;;;;5052007;28;20079;-58
2022/01/10 08:19:06;;;;;;;20.05;12.27;;;5.00;99.90;;;;;;5052176;28;20826;-58
2022/01/10 08:21:50;;;;;;;;;;;5.00;99.90;;;;;;5052501;28;20546;-58
2022/01/10 08:24:34;;;;;;;17.90;10.45;;;5.10;99.90;;;;;;5064300;28;19920;-57
2022/01/10 08:27:18;;;;;;;15.50;10.47;;;5.10;99.90;;;;;;5045546;28;20100;-53
2022/01/10 08:30:06;;;;;;;22.55;11.35;;;5.10;99.90;;;;;;5036261;28;20598;-54
2022/01/10 08:32:50;;;;;;;20.13;11.43;;;5.10;99.90;;;;;;5049885;28;20527;-56
2022/01/10 08:35:34;;;;;;;22.42;11.88;;;5.10;99.90;;;;;;5051686;28;20063;-55
2022/01/10 08:38:19;;;;;;;20.30;11.83;;;5.10;99.90;;;;;;5033888;28;20091;-55
2022/01/10 08:41:04;;;;;;;;;;;5.00;99.90;;;;;;5047341;28;20027;-60
2022/01/10 08:43:48;;;;;;;25.13;14.18;;;4.90;99.90;;;;;;5050939;28;19939;-58
2022/01/10 08:46:33;;;;;;;22.98;12.68;;;4.90;99.90;;;;;;5052115;28;20127;-57
2022/01/10 08:49:17;;;;;;;;;;;4.90;99.90;;;;;;5053095;28;20062;-55
2022/01/10 08:52:02;;;;;;;19.38;11.68;;;4.90;99.90;;;;;;5052394;28;19963;-59
2022/01/10 08:54:48;;;;;;;23.90;14.25;;;4.90;99.90;;;;;;5052227;28;20075;-59
2022/01/10 08:57:32;;;;;;;21.88;12.45;;;4.90;99.90;;;;;;5052532;28;20044;-58
2022/01/10 09:00:16;;;;;;;24.60;14.27;;;5.00;99.90;;;;;;5051347;28;20052;-58
2022/01/10 09:03:01;;;;;;;26.90;13.25;;;5.00;99.90;;;;;;5052593;28;20039;-59
2022/01/10 09:05:46;;;;;;;27.45;14.02;;;5.00;99.90;;;;;;5032670;28;20125;-56
2022/01/10 09:08:34;;;;;;;25.83;13.95;;;4.90;99.90;;;;;;5035951;28;20159;-55
2022/01/10 09:11:18;;;;;;;21.85;14.27;;;5.00;99.90;;;;;;5051227;28;20612;-57
2022/01/10 09:14:02;;;;;;;22.60;14.33;;;5.00;99.90;;;;;;5052398;28;20036;-59
2022/01/10 09:16:47;;;;;;;36.50;21.55;;;5.00;99.90;;;;;;5052040;28;20751;-58
2022/01/10 09:19:31;;;;;;;30.13;17.92;;;5.00;99.90;;;;;;5051065;28;20063;-60
2022/01/10 09:22:15;;;;;;;48.17;26.13;;;5.00;99.90;;;;;;5052118;28;20071;-57
2022/01/10 09:25:00;;;;;;;27.20;15.60;;;5.10;99.90;;;;;;5051027;28;20047;-54
2022/01/10 09:27:50;;;;;;;26.90;15.85;;;5.20;99.90;;;;;;5052324;28;20039;-57
2022/01/10 09:30:35;;;;;;;23.88;13.70;;;5.20;99.90;;;;;;5051969;28;20048;-58
2022/01/10 09:33:20;;;;;;;;;;;5.30;99.90;;;;;;5052042;28;20040;-60
2022/01/10 09:36:06;;;;;;;29.42;15.50;;;5.30;99.90;;;;;;5051558;28;20371;-60
2022/01/10 09:38:53;;;;;;;25.45;15.10;;;5.30;99.90;;;;;;5051534;28;20064;-60
2022/01/10 09:41:48;;;;;;;27.10;14.55;;;5.30;99.90;;;;;;5052926;28;20036;-59
2022/01/10 09:44:34;;;;;;;26.85;16.30;;;5.30;99.90;;;;;;5056010;28;20079;-57
2022/01/10 09:47:20;;;;;;;32.00;16.05;;;5.30;99.90;;;;;;5055919;28;20515;-56
2022/01/10 09:50:11;;;;;;;28.33;15.98;;;5.40;99.90;;;;;;5068409;28;20132;-56
2022/01/10 09:52:56;;;;;;;28.77;15.38;;;5.40;99.90;;;;;;5055522;28;20528;-55
2022/01/10 09:55:44;;;;;;;;;;;5.50;99.90;;;;;;5035102;28;20064;-60
2022/01/10 09:58:29;;;;;;;34.33;16.83;;;5.50;99.90;;;;;;5039093;28;19955;-56
2022/01/10 10:01:18;;;;;;;;;;;5.60;99.90;;;;;;5055417;28;20520;-55
2022/01/10 10:04:05;;;;;;;36.08;17.23;;;5.60;99.90;;;;;;5055774;28;19931;-59
2022/01/10 10:06:54;;;;;;;34.75;17.05;;;5.60;99.90;;;;;;5055920;28;20553;-58
2022/01/10 10:09:45;;;;;;;31.52;16.67;;;5.60;99.90;;;;;;5055805;28;20043;-56
2022/01/10 10:12:40;;;;;;;35.67;18.35;;;5.70;99.90;;;;;;5054945;28;20055;-58
2022/01/10 10:15:30;;;;;;;35.95;17.02;;;5.60;99.90;;;;;;5050697;28;20072;-59
2022/01/10 10:18:18;;;;;;;31.25;16.85;;;5.70;99.90;;;;;;5049565;28;20067;-61
2022/01/10 10:21:10;;;;;;;33.08;18.23;;;5.70;99.90;;;;;;5048300;28;20036;-61
2022/01/10 10:23:58;;;;;;;34.65;17.33;;;5.60;99.90;;;;;;5047157;28;20123;-57
2022/01/10 10:26:43;;;;;;;31.65;17.90;;;5.60;99.90;;;;;;5051927;28;20028;-57
2022/01/10 10:29:29;;;;;;;34.38;17.88;;;5.60;99.90;;;;;;5054851;28;20039;-60
2022/01/10 10:32:16;;;;;;;30.65;18.02;;;5.70;99.90;;;;;;5036520;28;20128;-57
2022/01/10 10:35:04;;;;;;;35.88;17.75;;;5.60;99.90;;;;;;5049205;28;20095;-56
2022/01/10 10:37:48;;;;;;;35.28;17.13;;;5.60;99.90;;;;;;5050567;28;20075;-58
2022/01/10 10:40:39;;;;;;;34.20;18.55;;;5.60;99.90;;;;;;5052615;28;20043;-57
2022/01/10 10:43:24;;;;;;;38.00;18.30;;;5.70;99.90;;;;;;5052737;28;20047;-56
2022/01/10 10:46:16;;;;;;;36.65;19.80;;;5.60;99.90;;;;;;5050244;28;20511;-58
2022/01/10 10:49:04;;;;;;;43.80;22.45;;;5.70;99.90;;;;;;5053964;28;20052;-57
2022/01/10 10:51:50;;;;;;;41.65;22.23;;;5.60;99.90;;;;;;5053276;28;20075;-56
2022/01/10 10:54:36;;;;;;;47.58;24.30;;;5.70;99.90;;;;;;5050209;28;20091;-56
2022/01/10 10:57:21;;;;;;;45.15;24.83;;;5.70;99.90;;;;;;5051286;28;20083;-58
2022/01/10 11:00:11;;;;;;;43.67;24.00;;;5.70;99.90;;;;;;5053634;28;20029;-58
2022/01/10 11:02:56;;;;;;;48.20;25.90;;;5.70;99.90;;;;;;5049403;28;20455;-60
2022/01/10 11:05:44;;;;;;;48.78;26.77;;;5.70;99.90;;;;;;5048294;28;20051;-60
2022/01/10 11:08:31;;;;;;;54.20;27.52;;;5.50;99.90;;;;;;5053318;28;20044;-54
2022/01/10 11:11:21;;;;;;;51.60;26.50;;;5.40;99.90;;;;;;5051790;28;20086;-57
2022/01/10 11:14:09;;;;;;;49.42;24.83;;;5.50;99.90;;;;;;5051121;28;20113;-60
2022/01/10 11:16:54;;;;;;;43.72;25.65;;;5.50;99.90;;;;;;5052515;28;20078;-56
2022/01/10 11:19:38;;;;;;;50.38;26.13;;;5.60;99.90;;;;;;5051508;28;20043;-55
2022/01/10 11:22:22;;;;;;;47.85;23.33;;;5.70;99.90;;;;;;5048888;28;20539;-58
2022/01/10 11:25:20;;;;;;;47.53;23.80;;;5.60;99.90;;;;;;5053027;28;20048;-56
2022/01/10 11:28:25;;;;;;;43.20;24.33;;;5.60;99.90;;;;;;5051737;28;20032;-55
2022/01/10 11:31:09;;;;;;;43.38;22.65;;;5.50;99.90;;;;;;5052354;28;20048;-58
2022/01/10 11:33:56;;;;;;;37.97;23.88;;;5.60;99.90;;;;;;5053067;28;20514;-57
2022/01/10 11:36:46;;;;;;;47.63;23.55;;;5.60;99.90;;;;;;5052786;28;20102;-54
2022/01/10 11:39:37;;;;;;;44.65;24.08;;;5.60;99.90;;;;;;5041310;28;20397;-56
2022/01/10 11:42:22;;;;;;;46.53;23.83;;;5.60;99.90;;;;;;5040932;28;20086;-48
2022/01/10 11:45:11;;;;;;;43.58;21.80;;;5.60;99.90;;;;;;5053258;28;20087;-56
2022/01/10 11:48:02;;;;;;;44.28;22.25;;;5.60;99.90;;;;;;5053692;28;20408;-57
2022/01/10 11:50:46;;;;;;;42.72;21.77;;;5.60;99.90;;;;;;5051397;28;20090;-55
2022/01/10 11:53:31;;;;;;;41.17;22.73;;;5.70;99.90;;;;;;5053893;28;20526;-55
2022/01/10 11:56:30;;;;;;;48.55;23.17;;;5.70;99.90;;;;;;5052454;28;20036;-52
2022/01/10 11:59:22;;;;;;;45.80;24.67;;;5.60;99.90;;;;;;5052833;28;20458;-52
2022/01/10 12:02:12;;;;;;;48.20;23.05;;;5.70;99.90;;;;;;5052692;28;20079;-52
2022/01/10 12:05:00;;;;;;;41.78;22.98;;;5.70;99.90;;;;;;5052026;28;20040;-57
2022/01/10 12:07:45;;;;;;;46.67;24.15;;;5.80;99.90;;;;;;5048946;28;20059;-53
2022/01/10 12:10:30;;;;;;;42.95;23.95;;;5.80;99.90;;;;;;5050760;28;20044;-54
2022/01/10 12:13:15;;;;;;;45.28;25.60;;;5.90;99.90;;;;;;5044210;28;20040;-57
2022/01/10 12:16:00;;;;;;;;;;;5.90;99.90;;;;;;5051929;28;20044;-53
2022/01/10 12:18:45;;;;;;;48.80;22.30;;;5.70;99.90;;;;;;5047030;28;19993;-55
2022/01/10 12:21:30;;;;;;;;;;;5.80;99.90;;;;;;5047570;28;20044;-51
2022/01/10 12:24:14;;;;;;;48.88;22.55;;;5.90;99.90;;;;;;5051918;28;20250;-56
2022/01/10 12:27:00;;;;;;;42.10;21.58;;;5.90;99.90;;;;;;5051148;28;20067;-52
2022/01/10 12:29:45;;;;;;;44.42;21.90;;;5.90;99.90;;;;;;5049633;28;20036;-49
2022/01/10 12:32:33;;;;;;;42.80;21.13;;;6.10;99.90;;;;;;5046171;28;20044;-52
2022/01/10 12:35:18;;;;;;;43.72;22.45;;;6.10;99.90;;;;;;5048649;28;20059;-57
2022/01/10 12:38:02;;;;;;;;;;;6.10;99.90;;;;;;5052306;28;20994;-49
2022/01/10 12:40:49;;;;;;;34.30;19.55;;;6.00;99.90;;;;;;5050022;28;20276;-55
2022/01/10 12:43:33;;;;;;;37.65;20.67;;;6.00;99.90;;;;;;5049772;28;20044;-55
2022/01/10 12:46:19;;;;;;;37.92;20.70;;;6.00;99.90;;;;;;5051720;28;20040;-54
2022/01/10 12:49:05;;;;;;;43.28;20.80;;;6.00;99.90;;;;;;5050577;28;20523;-56
2022/01/10 12:51:51;;;;;;;36.60;20.05;;;6.10;99.90;;;;;;5048843;28;20044;-52
2022/01/10 12:54:35;;;;;;;38.40;22.08;;;6.20;99.90;;;;;;5052056;28;20028;-50
2022/01/10 12:57:19;;;;;;;40.20;20.25;;;6.20;99.90;;;;;;5052333;28;20076;-52
2022/01/10 13:00:06;;;;;;;40.47;22.48;;;6.20;99.90;;;;;;5049193;28;20535;-54
2022/01/10 13:02:50;;;;;;;47.60;23.17;;;6.10;99.90;;;;;;5051063;28;20047;-56
2022/01/10 13:05:35;;;;;;;39.97;22.30;;;6.10;99.90;;;;;;5051640;28;20051;-57
2022/01/10 13:08:19;;;;;;;42.00;23.60;;;6.00;99.90;;;;;;5046127;28;20036;-53
2022/01/10 13:11:08;;;;;;;40.35;22.55;;;6.10;99.90;;;;;;5048133;28;20098;-50
2022/01/10 13:14:04;;;;;;;42.42;21.48;;;6.00;99.90;;;;;;5050298;28;20085;-56
2022/01/10 13:17:01;;;;;;;40.30;22.17;;;5.90;99.90;;;;;;5052648;28;20083;-55
2022/01/10 13:19:45;;;;;;;41.42;22.60;;;5.90;99.90;;;;;;5052121;28;20443;-54
2022/01/10 13:22:38;;;;;;;46.97;22.93;;;5.80;99.90;;;;;;5036765;28;20075;-54
2022/01/10 13:25:23;;;;;;;41.20;22.70;;;5.90;99.90;;;;;;5049694;28;20113;-57
2022/01/10 13:28:11;;;;;;;35.35;20.55;;;5.90;99.90;;;;;;5055081;28;20056;-55
2022/01/10 13:30:56;;;;;;;48.08;21.60;;;6.00;99.90;;;;;;5054299;28;20040;-54
2022/01/10 13:33:44;;;;;;;41.78;21.58;;;5.90;99.90;;;;;;5054674;28;20075;-51
2022/01/10 13:36:43;;;;;;;45.40;22.58;;;5.90;99.90;;;;;;5053691;28;20524;-57
2022/01/10 13:39:28;;;;;;;45.70;21.80;;;6.00;99.90;;;;;;5055729;28;20044;-57
2022/01/10 13:42:12;;;;;;;43.97;25.33;;;6.00;99.90;;;;;;5054333;28;20028;-56
2022/01/10 13:45:01;;;;;;;46.05;24.10;;;5.90;99.90;;;;;;5050105;28;20040;-58
2022/01/10 13:47:55;;;;;;;43.38;24.23;;;5.90;99.90;;;;;;5054456;28;20380;-56
2022/01/10 13:50:46;;;;;;;41.38;23.92;;;5.80;99.90;;;;;;5052532;28;20075;-57
2022/01/10 13:53:42;;;;;;;48.78;24.35;;;5.90;99.90;;;;;;5053544;28;20047;-55
2022/01/10 13:56:29;;;;;;;45.88;24.58;;;5.80;99.90;;;;;;5053016;28;20105;-58
2022/01/10 13:59:17;;;;;;;44.03;22.48;;;5.80;99.90;;;;;;5053054;28;20029;-56
2022/01/10 14:02:01;;;;;;;48.30;24.38;;;5.90;99.90;;;;;;5052993;28;20043;-59
2022/01/10 14:04:45;;;;;;;47.13;24.20;;;5.80;99.90;;;;;;5053166;28;20103;-58
2022/01/10 14:07:33;;;;;;;52.05;24.13;;;5.70;99.90;;;;;;5050866;28;20101;-59
2022/01/10 14:10:19;;;;;;;43.08;23.15;;;5.70;99.90;;;;;;5054175;28;20040;-58
2022/01/10 14:13:03;;;;;;;;;;;5.80;99.90;;;;;;5054316;28;20055;-60
2022/01/10 14:15:47;;;;;;;52.20;24.38;;;5.80;99.90;;;;;;5052576;28;19915;-59
2022/01/10 14:18:31;;;;;;;42.30;21.17;;;5.90;99.90;;;;;;5050827;28;20695;-58
2022/01/10 14:21:17;;;;;;;47.42;22.83;;;5.80;99.90;;;;;;5053222;28;20575;-56
2022/01/10 14:24:01;;;;;;;45.22;22.88;;;5.80;99.90;;;;;;5048967;28;20040;-59
2022/01/10 14:26:51;;;;;;;45.15;22.50;;;5.90;99.90;;;;;;5053512;28;20032;-60